Time;durP1;ratioP1;P1;durP2;ratioP2;P2;SDS_P1;SDS_P2;PMS_P1;PMS_P2;Temp;Humidity;BMP_temperature;BMP_pressure;BME280_temperature;BME280_humidity;BME280_pressure;Samples;Min_cycle;Max_cycle;Signal;HPM_P1;HPM_P2
2023/06/10 00:00:45;;;;;;;15.80;5.50;;;;;;;18.66;58.40;100643.79;107427;1254;107028;-68
2023/06/10 00:03:33;;;;;;;13.90;5.90;;;;;;;18.69;58.66;100641.64;107397;1254;97817;-69
2023/06/10 00:06:02;;;;;;;18.80;5.40;;;;;;;18.67;59.08;100636.63;107444;1254;97794;-67
2023/06/10 00:08:31;;;;;;;12.90;5.30;;;;;;;18.65;58.91;100635.81;107469;1254;111140;-68
2023/06/10 00:11:00;;;;;;;15.00;5.30;;;;;;;18.62;58.87;100636.62;107440;1254;109322;-68
2023/06/10 00:13:28;;;;;;;16.30;5.60;;;;;;;18.59;58.82;100637.38;107421;1254;108452;-68
2023/06/10 00:15:57;;;;;;;12.40;5.00;;;;;;;18.53;58.94;100643.55;107385;1254;97848;-67
2023/06/10 00:18:26;;;;;;;15.20;5.70;;;;;;;18.45;58.89;100640.79;107441;1254;98442;-72
2023/06/10 00:20:54;;;;;;;14.50;5.60;;;;;;;18.37;58.93;100638.13;107405;1257;111901;-67
2023/06/10 00:23:24;;;;;;;10.00;5.10;;;;;;;18.31;59.11;100641.54;107385;1254;109198;-69
2023/06/10 00:25:53;;;;;;;17.10;5.30;;;;;;;18.23;59.57;100642.54;107402;1254;107475;-67
2023/06/10 00:28:21;;;;;;;15.70;5.10;;;;;;;18.18;59.39;100640.86;107383;1254;97819;-68
2023/06/10 00:30:49;;;;;;;12.30;5.10;;;;;;;18.18;59.30;100637.98;107444;1257;98369;-71
2023/06/10 00:33:18;;;;;;;20.70;6.00;;;;;;;18.16;59.04;100639.42;107476;1254;114991;-68
2023/06/10 00:35:48;;;;;;;18.70;5.10;;;;;;;18.14;59.11;100636.98;107425;1254;109755;-68
2023/06/10 00:38:16;;;;;;;13.00;5.20;;;;;;;18.12;59.01;100640.56;107270;1254;108293;-67
2023/06/10 00:40:44;;;;;;;21.90;5.80;;;;;;;18.07;59.56;100636.54;107414;1254;97745;-67
2023/06/10 00:43:12;;;;;;;14.50;6.50;;;;;;;17.98;59.36;100641.25;107385;1254;97716;-67
2023/06/10 00:45:41;;;;;;;16.60;5.50;;;;;;;17.97;59.61;100644.79;107466;1254;111623;-71
2023/06/10 00:48:09;;;;;;;15.80;5.70;;;;;;;17.98;59.68;100646.51;107385;1254;111168;-68
2023/06/10 00:50:39;;;;;;;20.00;5.90;;;;;;;17.97;59.64;100647.34;107383;1254;111865;-69
2023/06/10 00:53:08;;;;;;;17.20;6.20;;;;;;;17.94;59.96;100641.15;107386;1254;97867;-68
2023/06/10 00:55:37;;;;;;;16.80;5.40;;;;;;;17.90;60.39;100641.46;107429;1254;98926;-68
2023/06/10 00:58:05;;;;;;;14.90;6.90;;;;;;;17.90;60.36;100637.80;107397;1257;110954;-69
2023/06/10 01:00:34;;;;;;;17.20;6.10;;;;;;;17.91;60.22;100637.52;107406;1254;109347;-68
2023/06/10 01:03:07;;;;;;;15.30;5.30;;;;;;;17.92;60.36;100635.77;107408;1254;107947;-68
2023/06/10 01:05:37;;;;;;;15.80;5.40;;;;;;;17.91;60.58;100634.23;107382;1254;98442;-68
2023/06/10 01:08:33;;;;;;;16.60;6.00;;;;;;;17.89;60.53;100633.96;107418;1254;97764;-70
2023/06/10 01:11:07;;;;;;;19.50;6.00;;;;;;;17.90;60.52;100636.91;107119;1254;111416;-67
2023/06/10 01:13:36;;;;;;;;;;;;;;;17.90;60.76;100640.02;107424;1254;109402;-67
2023/06/10 01:16:04;;;;;;;14.90;4.90;;;;;;;17.90;60.69;100640.38;107309;1254;108482;-66
2023/06/10 01:18:33;;;;;;;15.50;5.20;;;;;;;17.90;60.71;100645.10;107298;1259;97833;-68
2023/06/10 01:21:02;;;;;;;16.60;6.10;;;;;;;17.89;60.83;100641.59;107404;1254;98440;-68
2023/06/10 01:23:30;;;;;;;16.80;5.00;;;;;;;17.90;60.93;100644.44;107312;1259;111224;-68
2023/06/10 01:26:05;;;;;;;11.80;5.70;;;;;;;17.87;61.38;100645.26;107383;1254;110160;-67
2023/06/10 01:28:44;;;;;;;14.90;4.80;;;;;;;17.84;61.72;100650.76;107372;1254;107940;-69
2023/06/10 01:31:33;;;;;;;24.40;5.20;;;;;;;17.84;61.53;100653.61;107405;1254;97724;-68
2023/06/10 01:34:08;;;;;;;13.10;5.60;;;;;;;17.87;61.43;100656.25;107404;1257;97841;-68
2023/06/10 01:36:38;;;;;;;16.10;6.20;;;;;;;17.88;61.40;100660.54;107405;1254;112102;-67
2023/06/10 01:39:11;;;;;;;11.10;5.20;;;;;;;17.91;61.55;100656.94;107292;1254;109074;-69
2023/06/10 01:41:40;;;;;;;18.30;5.90;;;;;;;17.88;61.64;100657.14;107403;1254;108516;-69
2023/06/10 01:44:10;;;;;;;17.20;6.10;;;;;;;17.76;61.97;100662.88;107353;1254;97847;-67
2023/06/10 01:46:40;;;;;;;16.10;5.70;;;;;;;17.71;61.71;100655.96;107450;1254;98442;-68
2023/06/10 01:49:09;;;;;;;24.40;8.60;;;;;;;17.67;62.18;100654.57;107388;1254;111830;-67
2023/06/10 01:51:37;;;;;;;19.00;7.10;;;;;;;17.49;61.43;100653.88;107441;1253;109114;-66
2023/06/10 01:54:08;;;;;;;15.80;5.80;;;;;;;17.43;61.37;100658.69;107403;1254;108495;-67
2023/06/10 01:56:36;;;;;;;18.30;6.80;;;;;;;17.46;61.56;100655.55;107409;1254;97727;-71
2023/06/10 01:59:04;;;;;;;21.70;8.00;;;;;;;17.40;61.32;100652.31;107418;1254;97787;-69
2023/06/10 02:01:33;;;;;;;20.50;7.40;;;;;;;17.27;61.00;100653.32;107455;1257;111730;-69
2023/06/10 02:04:02;;;;;;;27.50;7.30;;;;;;;17.22;61.03;100650.17;107414;1257;108768;-68
2023/06/10 02:06:32;;;;;;;16.60;8.00;;;;;;;17.11;61.01;100655.22;107400;1254;108447;-68
2023/06/10 02:09:01;;;;;;;20.00;6.90;;;;;;;17.05;60.73;100653.98;107171;1254;97887;-68
2023/06/10 02:11:30;;;;;;;16.80;7.80;;;;;;;17.07;60.80;100655.44;107455;1253;98379;-68
2023/06/10 02:13:59;;;;;;;21.60;7.70;;;;;;;17.09;60.54;100661.90;107314;1254;111643;-67
2023/06/10 02:16:27;;;;;;;19.70;7.70;;;;;;;17.13;60.45;100663.95;107382;1254;109330;-68
2023/06/10 02:18:56;;;;;;;14.90;7.70;;;;;;;17.18;60.48;100668.85;107191;1257;107162;-67
2023/06/10 02:21:24;;;;;;;22.30;7.90;;;;;;;17.24;60.36;100665.65;107323;1254;97771;-68
2023/06/10 02:23:52;;;;;;;19.30;7.10;;;;;;;17.29;60.18;100668.56;107378;1254;97844;-70
2023/06/10 02:26:21;;;;;;;25.70;7.90;;;;;;;17.30;60.08;100667.66;107430;1254;111761;-67
2023/06/10 02:28:49;;;;;;;19.00;7.80;;;;;;;17.33;60.08;100666.39;107429;1254;109610;-68
2023/06/10 02:31:18;;;;;;;19.60;7.20;;;;;;;17.36;59.89;100667.39;107401;1254;108247;-68
2023/06/10 02:33:47;;;;;;;24.50;7.90;;;;;;;17.36;59.78;100665.51;107438;1257;97841;-68
2023/06/10 02:36:16;;;;;;;20.60;7.80;;;;;;;17.38;59.83;100668.56;107413;1254;98360;-67
2023/06/10 02:38:45;;;;;;;17.00;6.60;;;;;;;17.39;59.79;100669.07;107380;1254;112605;-68
2023/06/10 02:41:13;;;;;;;14.40;7.10;;;;;;;17.38;59.71;100674.38;107397;1254;109254;-67
2023/06/10 02:43:42;;;;;;;16.30;5.90;;;;;;;17.37;59.75;100672.85;107375;1254;108233;-68
2023/06/10 02:46:11;;;;;;;13.00;6.30;;;;;;;17.38;60.17;100684.95;107328;1254;97988;-67
2023/06/10 02:48:43;;;;;;;22.40;6.70;;;;;;;17.37;60.37;100682.30;107328;1254;98404;-67
2023/06/10 02:51:13;;;;;;;18.00;7.60;;;;;;;17.39;60.53;100689.73;107418;1254;112259;-69
2023/06/10 02:53:45;;;;;;;17.60;7.00;;;;;;;17.38;60.34;100697.34;107397;1254;109757;-70
2023/06/10 02:56:16;;;;;;;17.30;6.90;;;;;;;17.42;60.38;100695.65;107375;1254;108533;-68
2023/06/10 02:58:45;;;;;;;19.20;7.30;;;;;;;17.46;60.38;100696.80;107318;1254;97903;-69
2023/06/10 03:01:14;;;;;;;19.10;7.00;;;;;;;17.49;60.46;100693.01;107338;1254;97941;-67
2023/06/10 03:03:56;;;;;;;22.30;7.20;;;;;;;17.51;60.42;100689.25;107391;1254;111987;-70
2023/06/10 03:06:25;;;;;;;24.50;9.10;;;;;;;17.55;60.27;100689.38;107406;1253;108682;-68
2023/06/10 03:08:55;;;;;;;17.70;7.80;;;;;;;17.61;60.11;100689.94;107348;1254;108163;-68
2023/06/10 03:11:23;;;;;;;30.30;8.10;;;;;;;17.68;59.93;100693.10;107276;1254;97919;-68
2023/06/10 03:13:53;;;;;;;17.00;7.70;;;;;;;17.71;59.68;100696.58;107306;1254;97703;-69
2023/06/10 03:16:25;;;;;;;23.00;8.40;;;;;;;17.76;59.56;100695.73;107392;1257;112109;-68
2023/06/10 03:18:53;;;;;;;33.60;8.50;;;;;;;17.84;59.33;100695.92;107298;1254;109284;-69
2023/06/10 03:21:22;;;;;;;31.60;7.60;;;;;;;17.83;58.99;100697.23;107363;1253;107194;-68
2023/06/10 03:23:50;;;;;;;28.10;7.70;;;;;;;17.84;58.99;100697.48;107387;1254;97822;-68
2023/06/10 03:26:21;;;;;;;18.40;7.90;;;;;;;17.86;58.98;100701.16;107430;1254;98455;-67
2023/06/10 03:28:50;;;;;;;34.90;7.90;;;;;;;17.90;58.95;100702.09;107435;1254;112338;-68
2023/06/10 03:31:20;;;;;;;26.50;7.70;;;;;;;17.96;58.83;100700.98;107362;1254;109680;-68
2023/06/10 03:33:49;;;;;;;28.80;8.50;;;;;;;18.04;58.79;100700.27;107421;1254;108753;-68
2023/06/10 03:36:17;;;;;;;23.30;7.10;;;;;;;18.08;58.60;100700.29;107436;1254;97698;-67
2023/06/10 03:38:50;;;;;;;23.90;7.40;;;;;;;18.13;58.54;100700.73;107440;1254;97940;-67
2023/06/10 03:41:19;;;;;;;17.10;7.80;;;;;;;18.18;58.54;100695.23;107418;1254;112202;-68
2023/06/10 03:43:48;;;;;;;21.70;8.30;;;;;;;18.22;58.17;100701.70;107422;1257;108872;-70
2023/06/10 03:46:17;;;;;;;23.70;7.60;;;;;;;18.24;58.01;100704.75;107362;1254;108298;-68
2023/06/10 03:48:48;;;;;;;16.80;7.20;;;;;;;18.28;57.94;100704.52;107246;1254;97841;-68
2023/06/10 03:51:16;;;;;;;19.70;7.30;;;;;;;18.30;57.62;100704.73;107400;1254;98395;-69
2023/06/10 03:53:45;;;;;;;16.20;7.20;;;;;;;18.30;57.29;100703.20;107309;1253;111290;-68
2023/06/10 03:56:13;;;;;;;18.60;6.30;;;;;;;18.27;56.99;100705.24;107489;1253;110233;-68
2023/06/10 03:58:42;;;;;;;26.10;8.40;;;;;;;18.24;57.07;100702.02;107274;1254;106881;-66
2023/06/10 04:01:15;;;;;;;17.10;7.10;;;;;;;18.15;57.08;100696.17;107459;1254;98362;-71
2023/06/10 04:03:44;;;;;;;16.60;7.10;;;;;;;18.13;57.28;100698.35;107408;1254;97745;-70
2023/06/10 04:06:12;;;;;;;15.20;7.20;;;;;;;18.17;57.22;100691.54;107416;1254;112409;-67
2023/06/10 04:08:41;;;;;;;29.50;6.70;;;;;;;18.23;57.23;100694.05;107435;1254;109802;-68
2023/06/10 04:11:09;;;;;;;25.60;7.10;;;;;;;18.30;57.22;100699.59;107358;1254;108342;-67
2023/06/10 04:13:38;;;;;;;21.50;6.80;;;;;;;18.34;57.13;100695.45;107290;1254;97593;-67
2023/06/10 04:16:07;;;;;;;24.60;6.70;;;;;;;18.33;57.25;100693.64;107343;1254;97753;-66
2023/06/10 04:18:36;;;;;;;19.60;6.20;;;;;;;18.31;57.10;100698.80;107379;1254;112211;-68
2023/06/10 04:21:06;;;;;;;16.00;6.70;;;;;;;18.32;57.15;100699.91;107391;1254;109701;-67
2023/06/10 04:23:37;;;;;;;15.40;7.00;;;;;;;18.31;56.95;100694.36;107197;1254;107146;-68
2023/06/10 04:26:07;;;;;;;24.70;7.20;;;;;;;18.37;56.97;100697.41;107381;1254;97837;-68
2023/06/10 04:28:36;;;;;;;24.80;7.30;;;;;;;18.48;56.73;100702.66;107166;1254;97948;-68
2023/06/10 04:31:04;;;;;;;15.90;7.40;;;;;;;18.58;56.50;100708.57;107482;1253;111423;-68
2023/06/10 04:33:33;;;;;;;18.90;7.50;;;;;;;18.65;56.49;100706.82;107260;1254;109950;-67
2023/06/10 04:36:02;;;;;;;26.90;8.70;;;;;;;18.64;56.55;100712.89;107376;1254;107376;-67
2023/06/10 04:38:31;;;;;;;17.90;8.10;;;;;;;18.64;56.53;100716.91;107378;1254;98083;-68
2023/06/10 04:41:00;;;;;;;25.30;8.20;;;;;;;18.65;56.44;100715.70;107373;1254;98379;-69
2023/06/10 04:43:30;;;;;;;23.80;8.60;;;;;;;18.71;56.38;100716.94;107377;1254;111756;-67
2023/06/10 04:46:00;;;;;;;24.70;8.50;;;;;;;18.74;56.35;100720.20;107391;1254;108434;-68
2023/06/10 04:48:29;;;;;;;22.60;7.80;;;;;;;18.78;56.31;100717.29;107359;1254;108385;-67
2023/06/10 04:50:59;;;;;;;19.80;7.70;;;;;;;18.86;56.25;100717.08;107359;1254;97841;-68
2023/06/10 04:53:28;;;;;;;21.50;6.90;;;;;;;18.87;56.16;100714.45;107472;1254;97720;-68
2023/06/10 04:55:57;;;;;;;27.20;8.70;;;;;;;18.90;56.02;100709.63;107435;1254;111375;-68
2023/06/10 04:58:26;;;;;;;13.50;6.30;;;;;;;18.98;56.01;100710.95;107430;1253;108959;-68
2023/06/10 05:00:54;;;;;;;19.10;6.70;;;;;;;19.03;56.01;100710.58;107329;1254;107777;-70
2023/06/10 05:03:22;;;;;;;21.00;7.50;;;;;;;19.13;55.91;100713.45;107372;1254;97870;-72
2023/06/10 05:05:51;;;;;;;19.30;6.90;;;;;;;19.19;55.59;100710.98;107418;1254;98413;-69
2023/06/10 05:08:20;;;;;;;24.40;6.90;;;;;;;19.21;55.53;100710.77;107390;1254;111836;-68
2023/06/10 05:10:49;;;;;;;19.30;7.40;;;;;;;19.27;55.49;100713.45;107433;1257;108643;-69
2023/06/10 05:13:17;;;;;;;25.50;11.40;;;;;;;19.34;55.37;100714.73;107414;1254;107786;-67
2023/06/10 05:15:46;;;;;;;25.50;11.70;;;;;;;19.40;55.13;100718.88;107423;1254;97850;-67
2023/06/10 05:18:17;;;;;;;24.10;7.20;;;;;;;19.49;55.01;100719.91;107461;1254;98345;-68
2023/06/10 05:20:45;;;;;;;16.50;7.00;;;;;;;19.62;55.01;100720.86;107427;1254;110590;-68
2023/06/10 05:23:13;;;;;;;18.20;7.90;;;;;;;19.73;54.50;100725.78;107415;1254;109257;-69
2023/06/10 05:25:42;;;;;;;15.70;6.20;;;;;;;19.85;54.32;100722.06;107380;1257;108673;-67
2023/06/10 05:28:11;;;;;;;23.40;6.80;;;;;;;19.98;53.73;100719.66;107391;1254;97929;-67
2023/06/10 05:30:42;;;;;;;24.20;7.30;;;;;;;20.09;53.68;100722.86;107434;1253;97834;-67
2023/06/10 05:33:10;;;;;;;17.80;6.80;;;;;;;20.18;53.34;100722.71;107445;1254;112076;-68
2023/06/10 05:35:40;;;;;;;11.60;5.90;;;;;;;20.28;53.24;100723.05;107441;1254;109743;-68
2023/06/10 05:38:08;;;;;;;25.70;7.40;;;;;;;20.38;52.57;100723.20;107413;1254;107230;-68
2023/06/10 05:40:37;;;;;;;18.10;5.70;;;;;;;20.43;52.00;100719.45;107417;1257;97851;-68
2023/06/10 05:43:05;;;;;;;15.70;5.50;;;;;;;20.47;51.74;100717.98;107422;1254;97922;-68
2023/06/10 05:45:33;;;;;;;29.00;8.10;;;;;;;20.50;51.74;100717.86;107422;1254;111825;-67
2023/06/10 05:48:04;;;;;;;22.90;6.80;;;;;;;20.52;51.65;100719.44;107398;1254;109026;-67
2023/06/10 05:50:38;;;;;;;23.00;6.70;;;;;;;20.47;51.63;100716.52;107422;1254;108318;-66
2023/06/10 05:53:08;;;;;;;18.40;6.30;;;;;;;20.45;51.85;100717.59;107398;1254;97833;-68
2023/06/10 05:55:36;;;;;;;17.50;7.20;;;;;;;20.46;51.70;100719.45;107382;1254;97838;-68
2023/06/10 05:58:04;;;;;;;26.30;6.00;;;;;;;20.50;51.45;100715.89;107378;1254;111880;-68
2023/06/10 06:00:32;;;;;;;26.00;8.70;;;;;;;20.56;51.65;100717.94;107374;1258;109904;-66
2023/06/10 06:03:08;;;;;;;22.20;5.70;;;;;;;20.65;51.35;100716.05;107366;1254;107697;-68
2023/06/10 06:05:38;;;;;;;16.50;6.00;;;;;;;20.76;51.14;100721.31;107385;1254;97806;-66
2023/06/10 06:08:07;;;;;;;21.10;6.30;;;;;;;20.91;50.87;100719.89;107440;1254;98363;-67
2023/06/10 06:10:36;;;;;;;18.60;6.30;;;;;;;21.03;50.74;100716.86;107350;1254;111708;-66
2023/06/10 06:13:04;;;;;;;23.40;7.20;;;;;;;21.14;50.42;100717.65;107287;1254;109278;-67
2023/06/10 06:15:33;;;;;;;26.40;6.00;;;;;;;21.21;50.21;100714.88;107374;1254;108211;-67
2023/06/10 06:18:01;;;;;;;21.90;6.20;;;;;;;21.24;50.13;100711.98;107388;1254;97838;-67
2023/06/10 06:20:30;;;;;;;21.80;6.20;;;;;;;21.31;50.26;100705.08;107382;1254;97896;-68
2023/06/10 06:22:58;;;;;;;18.90;6.60;;;;;;;21.39;49.77;100711.10;107358;1254;112547;-66
2023/06/10 06:25:26;;;;;;;17.90;5.90;;;;;;;21.49;49.46;100709.38;107338;1254;109334;-65
2023/06/10 06:27:55;;;;;;;23.70;7.00;;;;;;;21.56;49.34;100706.35;107375;1254;108322;-67
2023/06/10 06:30:23;;;;;;;19.20;6.00;;;;;;;21.63;49.52;100704.10;107329;1255;97983;-67
2023/06/10 06:32:51;;;;;;;18.80;6.70;;;;;;;21.70;49.39;100705.11;107326;1255;97834;-68
2023/06/10 06:35:20;;;;;;;20.80;6.40;;;;;;;21.72;49.16;100704.40;107338;1254;112176;-68
2023/06/10 06:37:48;;;;;;;19.20;5.60;;;;;;;21.73;48.69;100705.23;107394;1254;109300;-67
2023/06/10 06:40:24;;;;;;;18.30;6.70;;;;;;;21.77;48.47;100705.66;107378;1254;108079;-69
2023/06/10 06:42:52;;;;;;;28.50;6.50;;;;;;;21.84;48.53;100700.60;107407;1254;97899;-67
2023/06/10 06:45:39;;;;;;;19.40;5.70;;;;;;;22.01;48.63;100697.63;107340;1254;97825;-67
2023/06/10 06:48:08;;;;;;;21.00;5.50;;;;;;;22.12;48.53;100695.36;107416;1254;112142;-68
2023/06/10 06:50:37;;;;;;;12.60;5.20;;;;;;;22.24;48.11;100692.52;107371;1254;109397;-66
2023/06/10 06:53:05;;;;;;;17.00;6.40;;;;;;;22.36;47.77;100692.84;107469;1254;108086;-68
2023/06/10 06:55:33;;;;;;;25.10;6.10;;;;;;;22.46;46.87;100692.77;107447;1254;97912;-67
2023/06/10 06:58:03;;;;;;;14.50;5.30;;;;;;;22.53;46.66;100688.71;107476;1254;98424;-69
2023/06/10 07:00:32;;;;;;;12.10;5.50;;;;;;;22.58;46.77;100689.11;107488;1254;111416;-67
2023/06/10 07:03:01;;;;;;;13.70;5.30;;;;;;;22.65;46.81;100686.83;107424;1254;109664;-70
2023/06/10 07:05:30;;;;;;;16.50;4.80;;;;;;;22.73;46.59;100684.55;107394;1254;107623;-69
2023/06/10 07:07:59;;;;;;;13.20;5.30;;;;;;;22.81;46.30;100684.43;107436;1253;97835;-67
2023/06/10 07:10:28;;;;;;;24.00;5.90;;;;;;;22.89;46.41;100682.77;107414;1257;97822;-67
2023/06/10 07:12:57;;;;;;;18.40;5.00;;;;;;;23.00;46.60;100679.61;107477;1254;111417;-67
2023/06/10 07:15:25;;;;;;;14.10;5.60;;;;;;;23.12;46.22;100681.02;107403;1253;109971;-68
2023/06/10 07:17:53;;;;;;;15.00;5.30;;;;;;;23.24;45.76;100677.26;107430;1254;108011;-66
2023/06/10 07:20:22;;;;;;;14.60;5.90;;;;;;;23.36;45.64;100680.36;107423;1257;97909;-69
2023/06/10 07:22:50;;;;;;;18.00;5.60;;;;;;;23.49;45.48;100679.92;107336;1254;97887;-68
2023/06/10 07:25:18;;;;;;;14.50;5.40;;;;;;;23.60;44.85;100681.47;107326;1253;112204;-68
2023/06/10 07:27:47;;;;;;;17.80;5.30;;;;;;;23.69;44.45;100678.39;107404;1253;109273;-67
2023/06/10 07:30:16;;;;;;;12.20;5.10;;;;;;;23.78;44.45;100678.56;107414;1254;107893;-67
2023/06/10 07:32:44;;;;;;;16.70;4.80;;;;;;;23.86;44.42;100673.15;107468;1257;97996;-66
2023/06/10 07:35:13;;;;;;;17.80;5.00;;;;;;;23.95;44.02;100671.98;107461;1254;97764;-68
2023/06/10 07:37:42;;;;;;;12.20;5.10;;;;;;;24.04;43.84;100673.25;107312;1254;111847;-68
2023/06/10 07:40:10;;;;;;;20.60;4.40;;;;;;;24.11;43.75;100668.02;107449;1253;108650;-67
2023/06/10 07:42:38;;;;;;;13.90;4.60;;;;;;;24.17;43.58;100666.33;107427;1254;108452;-67
2023/06/10 07:45:08;;;;;;;13.30;4.50;;;;;;;24.23;43.02;100663.27;107433;1254;97815;-67
2023/06/10 07:47:36;;;;;;;15.20;5.30;;;;;;;24.31;42.63;100664.31;107477;1253;97940;-67
2023/06/10 07:50:06;;;;;;;13.50;4.70;;;;;;;24.41;42.70;100664.36;107479;1254;110086;-68
2023/06/10 07:52:34;;;;;;;17.50;4.70;;;;;;;24.48;42.14;100661.94;107478;1253;108568;-66
2023/06/10 07:55:04;;;;;;;14.60;5.30;;;;;;;24.57;42.26;100658.48;107410;1254;108451;-68
2023/06/10 07:57:36;;;;;;;18.20;4.80;;;;;;;24.68;42.00;100660.08;107452;1254;99148;-66
2023/06/10 08:00:05;;;;;;;16.10;4.10;;;;;;;24.79;41.70;100658.67;107434;1254;97713;-72
2023/06/10 08:02:39;;;;;;;15.50;4.50;;;;;;;24.89;41.65;100655.39;106876;1253;788813;-67
2023/06/10 08:05:09;;;;;;;13.30;3.40;;;;;;;25.02;40.54;100659.67;107531;1253;110030;-67
2023/06/10 08:07:40;;;;;;;23.30;4.60;;;;;;;25.14;40.12;100656.45;107478;1254;107448;-67
2023/06/10 08:10:10;;;;;;;16.60;4.20;;;;;;;25.29;39.80;100652.52;107359;1254;97850;-68
2023/06/10 08:12:38;;;;;;;15.60;4.20;;;;;;;25.43;39.09;100650.52;107446;1254;98478;-71
2023/06/10 08:15:07;;;;;;;20.90;4.80;;;;;;;25.56;39.23;100650.35;107458;1254;112102;-68
2023/06/10 08:17:39;;;;;;;15.70;4.10;;;;;;;25.68;38.36;100650.17;107451;1254;109214;-72
2023/06/10 08:20:09;;;;;;;17.30;4.30;;;;;;;25.77;38.14;100648.23;107461;1254;107649;-68
2023/06/10 08:22:38;;;;;;;23.20;4.20;;;;;;;25.89;38.25;100645.52;107438;1254;97806;-71
2023/06/10 08:25:06;;;;;;;15.50;4.50;;;;;;;26.02;38.26;100645.46;107461;1254;97919;-68
2023/06/10 08:27:35;;;;;;;13.10;3.90;;;;;;;26.15;38.41;100639.72;107431;1254;111007;-69
2023/06/10 08:30:05;;;;;;;15.80;4.00;;;;;;;26.31;37.93;100636.40;107348;1254;108405;-68
2023/06/10 08:32:33;;;;;;;13.70;4.10;;;;;;;26.47;38.08;100631.36;107296;1254;108245;-67
2023/06/10 08:35:01;;;;;;;20.00;4.00;;;;;;;26.64;37.43;100626.94;107392;1254;97924;-68
2023/06/10 08:37:30;;;;;;;13.80;3.80;;;;;;;26.81;36.61;100626.17;107342;1254;97848;-66
2023/06/10 08:39:58;;;;;;;30.00;4.00;;;;;;;26.99;36.42;100627.14;107403;1255;111403;-66
2023/06/10 08:42:53;;;;;;;13.30;4.00;;;;;;;27.17;35.71;100626.29;107488;1254;109983;-68
2023/06/10 08:45:23;;;;;;;17.00;3.30;;;;;;;27.40;35.56;100625.66;107413;1254;107855;-68
2023/06/10 08:47:54;;;;;;;17.80;4.90;;;;;;;27.56;35.23;100621.45;107307;1254;97899;-68
2023/06/10 08:50:23;;;;;;;22.40;3.80;;;;;;;27.72;34.07;100620.48;107215;1254;98164;-67
2023/06/10 08:52:57;;;;;;;17.10;3.20;;;;;;;27.83;34.32;100620.17;107432;1257;111824;-66
2023/06/10 08:55:58;;;;;;;25.00;4.50;;;;;;;27.97;32.48;100620.41;107422;1254;110660;-67
2023/06/10 08:58:27;;;;;;;13.00;3.60;;;;;;;28.06;33.25;100617.23;107039;1257;108799;-68
2023/06/10 09:00:56;;;;;;;12.20;3.80;;;;;;;28.15;32.99;100617.02;107402;1256;97800;-67
2023/06/10 09:03:25;;;;;;;29.70;4.10;;;;;;;28.28;33.89;100615.13;107427;1254;97727;-68
2023/06/10 09:05:56;;;;;;;9.80;3.50;;;;;;;28.51;33.73;100613.16;107268;1254;112434;-69
2023/06/10 09:08:25;;;;;;;12.80;3.20;;;;;;;28.77;32.45;100614.34;107423;1254;109566;-67
2023/06/10 09:10:53;;;;;;;12.60;3.10;;;;;;;29.05;31.00;100612.82;107400;1257;108443;-67
2023/06/10 09:13:22;;;;;;;12.80;3.30;;;;;;;29.32;30.11;100609.93;107382;1258;97825;-67
2023/06/10 09:15:51;;;;;;;14.20;3.10;;;;;;;29.51;30.29;100606.48;107389;1257;97786;-67
2023/06/10 09:18:20;;;;;;;12.00;3.40;;;;;;;29.76;29.60;100604.85;107407;1254;111416;-69
2023/06/10 09:20:48;;;;;;;15.00;3.50;;;;;;;30.01;29.58;100600.21;107391;1257;108848;-68
2023/06/10 09:23:17;;;;;;;19.60;3.30;;;;;;;30.26;28.76;100596.76;107229;1254;107513;-65
2023/06/10 09:25:45;;;;;;;13.20;3.20;;;;;;;30.54;29.02;100592.79;107508;1254;97912;-71
2023/06/10 09:28:15;;;;;;;7.50;3.80;;;;;;;30.83;28.99;100588.84;107385;1255;97819;-68
2023/06/10 09:30:43;;;;;;;10.20;3.40;;;;;;;31.12;28.57;100587.91;107378;1258;110952;-67
2023/06/10 09:33:15;;;;;;;8.70;3.30;;;;;;;31.24;27.47;100589.67;107368;1257;110804;-67
2023/06/10 09:35:49;;;;;;;17.80;3.00;;;;;;;31.19;26.71;100585.36;107361;1257;107622;-67
2023/06/10 09:38:21;;;;;;;15.00;3.10;;;;;;;31.09;27.54;100584.78;107358;1255;97695;-67
2023/06/10 09:40:54;;;;;;;11.30;3.60;;;;;;;31.12;27.99;100581.59;107421;1254;97825;-72
2023/06/10 09:43:23;;;;;;;7.00;2.70;;;;;;;31.16;27.80;100581.92;107440;1258;112215;-69
2023/06/10 09:45:54;;;;;;;6.60;2.70;;;;;;;31.15;27.00;100575.80;107388;1255;109124;-68
2023/06/10 09:48:23;;;;;;;11.60;2.80;;;;;;;31.18;27.00;100575.75;107243;1257;108342;-66
2023/06/10 09:50:52;;;;;;;13.90;3.60;;;;;;;31.40;26.90;100573.66;107387;1255;97829;-67
2023/06/10 09:53:20;;;;;;;13.80;2.80;;;;;;;31.58;26.72;100569.93;107441;1254;97803;-66
2023/06/10 09:55:49;;;;;;;15.70;2.60;;;;;;;31.71;26.31;100571.92;107479;1254;112229;-68
2023/06/10 09:58:17;;;;;;;18.40;3.80;;;;;;;31.84;26.77;100569.87;107412;1254;110462;-68
2023/06/10 10:00:53;;;;;;;10.80;3.10;;;;;;;32.19;26.70;100567.32;107475;1254;108491;-67
2023/06/10 10:03:24;;;;;;;12.40;2.60;;;;;;;32.63;26.45;100565.44;107418;1254;97818;-68
2023/06/10 10:06:02;;;;;;;18.00;3.30;;;;;;;32.89;26.26;100565.30;107447;1254;97893;-67
2023/06/10 10:08:31;;;;;;;8.40;2.70;;;;;;;33.23;25.75;100566.90;107416;1254;112150;-67
2023/06/10 10:11:00;;;;;;;16.20;3.30;;;;;;;33.51;24.73;100560.66;107412;1253;110370;-68
2023/06/10 10:13:34;;;;;;;14.80;2.70;;;;;;;33.60;23.81;100559.94;107418;1254;107271;-70
2023/06/10 10:16:29;;;;;;;13.10;2.80;;;;;;;33.99;24.72;100554.62;107419;1254;97918;-67
2023/06/10 10:19:16;;;;;;;11.90;2.90;;;;;;;34.60;24.02;100550.05;107408;1255;97720;-67
2023/06/10 10:22:01;;;;;;;12.60;2.50;;;;;;;35.20;23.66;100551.25;107396;1254;111457;-69
2023/06/10 10:24:42;;;;;;;15.50;2.50;;;;;;;35.77;22.67;100549.96;107414;1254;109797;-68
2023/06/10 10:27:21;;;;;;;7.10;2.70;;;;;;;36.30;21.80;100548.95;107278;1254;109741;-66
2023/06/10 10:29:52;;;;;;;8.70;2.90;;;;;;;36.48;20.80;100546.76;107391;1256;97944;-67
2023/06/10 10:32:48;;;;;;;16.20;3.20;;;;;;;36.72;21.75;100544.20;107436;1258;97713;-67
2023/06/10 10:35:23;;;;;;;10.10;2.70;;;;;;;37.18;20.23;100540.83;107123;1254;111817;-66
2023/06/10 10:37:53;;;;;;;8.60;2.90;;;;;;;37.26;20.09;100536.73;107463;1254;110326;-68
2023/06/10 10:40:23;;;;;;;23.10;2.80;;;;;;;37.55;21.00;100534.76;107441;1254;107778;-67
2023/06/10 10:42:52;;;;;;;10.20;2.30;;;;;;;37.96;20.91;100531.94;107425;1259;97830;-67
2023/06/10 10:45:22;;;;;;;9.40;2.70;;;;;;;38.30;20.78;100531.52;107489;1254;98361;-67
2023/06/10 10:47:56;;;;;;;6.40;2.40;;;;;;;38.51;19.51;100530.89;107461;1254;111731;-68
2023/06/10 10:50:30;;;;;;;14.60;3.20;;;;;;;38.47;19.12;100523.39;107463;1258;110196;-68
2023/06/10 10:53:04;;;;;;;11.50;2.30;;;;;;;38.50;18.71;100520.88;107377;1254;108635;-67
2023/06/10 10:55:33;;;;;;;11.10;2.30;;;;;;;38.43;18.06;100524.06;107435;1254;97844;-67
2023/06/10 10:58:06;;;;;;;15.00;2.60;;;;;;;37.93;18.66;100521.59;107332;1257;97717;-67
2023/06/10 11:00:35;;;;;;;12.70;3.00;;;;;;;37.51;19.38;100520.66;107374;1257;112055;-68
2023/06/10 11:03:03;;;;;;;10.10;2.50;;;;;;;37.73;19.42;100517.97;107242;1254;109766;-68
2023/06/10 11:05:41;;;;;;;9.80;2.80;;;;;;;37.20;20.18;100524.51;107242;1254;108516;-72
2023/06/10 11:08:11;;;;;;;8.90;3.00;;;;;;;36.62;20.88;100525.79;107359;1254;97826;-66
2023/06/10 11:10:50;;;;;;;11.70;2.40;;;;;;;36.16;21.32;100521.27;107396;1257;98369;-67
2023/06/10 11:13:20;;;;;;;9.00;2.20;;;;;;;36.90;20.81;100514.54;107371;1257;112554;-68
2023/06/10 11:15:50;;;;;;;8.40;2.50;;;;;;;37.00;19.38;100516.91;107388;1254;108926;-67
2023/06/10 11:18:38;;;;;;;18.60;3.50;;;;;;;36.04;19.89;100523.36;107365;1254;109101;-66